Time;durP1;ratioP1;P1;durP2;ratioP2;P2;SDS_P1;SDS_P2;PMS_P1;PMS_P2;Temp;Humidity;BMP_temperature;BMP_pressure;BME280_temperature;BME280_humidity;BME280_pressure;Samples;Min_cycle;Max_cycle;Signal;HPM_P1;HPM_P2
2021/05/06 00:32:36;;;;;;;6.20;2.42;;;;;;;5.59;66.02;97344.89;1771929;79;21396;-73
2021/05/06 00:35:04;;;;;;;4.00;2.02;;;;;;;5.59;66.52;97350.27;1792657;80;21026;-73
2021/05/06 00:37:32;;;;;;;4.87;2.20;;;;;;;5.61;66.79;97356.72;1792955;79;22043;-73
2021/05/06 00:40:06;;;;;;;6.92;2.70;;;;;;;5.63;66.78;97351.88;1792794;80;21432;-73
2021/05/06 00:42:42;;;;;;;3.42;2.05;;;;;;;5.62;66.85;97356.45;1791762;79;21141;-74
2021/05/06 00:56:34;;;;;;;5.90;2.47;;;;;;;5.36;66.57;97368.98;1701715;84;21168;-74
2021/05/06 00:59:11;;;;;;;5.08;2.50;;;;;;;5.34;67.23;97372.47;1890268;76;22377;-72
2021/05/06 01:01:38;;;;;;;12.65;4.15;;;;;;;5.24;67.28;97373.77;1851674;77;20956;-73
2021/05/06 01:04:11;;;;;;;9.48;3.92;;;;;;;5.19;67.29;97382.32;1822529;78;21209;-74
2021/05/06 01:06:27;;;;;;;9.03;4.67;;;;;;;5.16;67.01;97380.16;1822338;77;21590;-74
2021/05/06 01:09:02;;;;;;;6.30;2.72;;;;;;;5.16;67.13;97379.63;1827318;78;20968;-73
2021/05/06 01:13:51;;;;;;;5.70;2.10;;;;;;;5.25;67.25;97382.09;1827448;78;20963;-73
2021/05/06 01:16:36;;;;;;;4.53;2.33;;;;;;;5.30;67.40;97373.27;1827364;77;21471;-73
2021/05/06 01:19:03;;;;;;;6.62;3.10;;;;;;;5.32;67.19;97373.27;1827328;78;21019;-73
2021/05/06 01:21:29;;;;;;;8.45;3.87;;;;;;;5.32;67.06;97379.98;1827309;77;21022;-73
2021/05/06 01:23:56;;;;;;;10.75;4.12;;;;;;;5.32;66.75;97382.67;1827315;78;21082;-73
2021/05/06 01:26:41;;;;;;;7.10;2.83;;;;;;;5.33;66.48;97383.48;1795280;77;21305;-73
2021/05/06 01:29:06;;;;;;;5.78;2.40;;;;;;;5.33;66.32;97392.88;1825748;78;22149;-73
2021/05/06 01:31:34;;;;;;;11.73;5.40;;;;;;;5.34;66.29;97394.50;1826960;77;21038;-73
2021/05/06 01:34:09;;;;;;;20.17;8.07;;;;;;;5.31;66.26;97397.72;1827647;78;21101;-73
2021/05/06 01:36:39;;;;;;;15.68;7.08;;;;;;;5.23;66.28;97396.33;1826213;77;21050;-73
2021/05/06 01:47:04;;;;;;;8.33;2.75;;;;;;;5.03;66.28;97410.42;1827344;77;21046;-73
2021/05/06 01:59:59;;;;;;;3.90;1.95;;;;;;;4.92;66.44;97411.42;1833415;78;21149;-73
2021/05/06 02:02:25;;;;;;;7.35;2.42;;;;;;;4.94;66.61;97410.63;1806375;78;21078;-73
2021/05/06 02:04:51;;;;;;;4.72;2.22;;;;;;;4.94;67.05;97411.16;1833394;78;21113;-73
2021/05/06 02:07:17;;;;;;;5.20;1.98;;;;;;;4.95;67.14;97414.12;1833333;76;22095;-73
2021/05/06 02:09:49;;;;;;;4.70;2.22;;;;;;;4.95;67.32;97415.47;1832923;78;21165;-73
2021/05/06 02:12:13;;;;;;;4.40;1.60;;;;;;;4.93;67.23;97415.73;1831537;77;21400;-73
2021/05/06 02:14:39;;;;;;;4.50;2.27;;;;;;;4.89;67.12;97417.33;1832725;78;21058;-73
2021/05/06 02:17:05;;;;;;;2.90;1.70;;;;;;;4.85;67.11;97414.05;1832699;77;21177;-73
2021/05/06 02:19:36;;;;;;;4.70;2.65;;;;;;;4.81;67.00;97413.23;1832763;78;21392;-73
2021/05/06 02:22:03;;;;;;;3.35;2.37;;;;;;;4.80;66.87;97409.47;1832123;76;21042;-73
2021/05/06 02:24:28;;;;;;;4.40;2.30;;;;;;;4.78;66.80;97411.05;1832373;78;21078;-74
2021/05/06 02:26:54;;;;;;;4.33;1.70;;;;;;;4.76;66.77;97413.72;1832694;77;21181;-74
2021/05/06 02:29:20;;;;;;;7.53;2.02;;;;;;;4.73;66.75;97412.91;1832788;78;21142;-74
2021/05/06 02:31:47;;;;;;;4.47;2.47;;;;;;;4.68;66.84;97410.97;1832781;77;21195;-73
2021/05/06 02:34:13;;;;;;;6.97;3.95;;;;;;;4.68;66.76;97420.90;1832763;78;21502;-74
2021/05/06 02:36:39;;;;;;;17.92;8.48;;;;;;;4.67;66.97;97425.46;1832689;76;21029;-73
2021/05/06 02:39:05;;;;;;;22.45;12.03;;;;;;;4.67;67.03;97422.78;1832729;78;21070;-74
2021/05/06 02:41:32;;;;;;;10.53;5.45;;;;;;;4.72;67.28;97422.02;1832745;76;21022;-73
2021/05/06 02:43:58;;;;;;;7.12;2.77;;;;;;;4.75;67.25;97421.50;1832753;78;21307;-74
2021/05/06 02:46:27;;;;;;;4.22;3.20;;;;;;;4.76;67.17;97415.06;1832813;76;21577;-74
2021/05/06 02:48:53;;;;;;;5.30;2.40;;;;;;;4.78;67.00;97413.73;1832779;78;21161;-72
2021/05/06 02:51:28;;;;;;;4.90;2.83;;;;;;;4.79;66.76;97414.57;1832743;77;21117;-72
2021/05/06 02:53:53;;;;;;;3.67;2.62;;;;;;;4.77;66.64;97409.44;1831106;77;21122;-73
2021/05/06 02:59:01;;;;;;;5.35;4.35;;;;;;;4.76;66.40;97422.58;1826640;78;21511;-73
2021/05/06 03:04:03;;;;;;;6.17;3.77;;;;;;;4.71;66.36;97425.24;1824579;78;21134;-74
2021/05/06 03:06:31;;;;;;;7.03;3.20;;;;;;;4.69;66.33;97434.59;1824768;77;21031;-74
2021/05/06 03:09:24;;;;;;;6.42;2.72;;;;;;;4.68;66.43;97435.66;1824497;78;22120;-74
2021/05/06 03:11:46;;;;;;;9.83;4.50;;;;;;;4.67;66.23;97444.78;1820253;77;21193;-73
2021/05/06 03:25:02;;;;;;;8.08;3.42;;;;;;;4.61;66.91;97459.21;1824551;78;21070;-73
2021/05/06 03:27:31;;;;;;;6.33;3.70;;;;;;;4.44;67.02;97467.38;1824097;77;21201;-73
2021/05/06 03:43:33;;;;;;;7.50;4.22;;;;;;;4.01;68.60;97501.77;1824604;77;21142;-74
2021/05/06 04:18:04;;;;;;;13.18;6.30;;;;;;;3.96;70.29;97526.13;1809202;78;21423;-73
2021/05/06 04:28:58;;;;;;;8.98;5.62;;;;;;;4.29;70.86;97532.95;1832758;77;21259;-74
2021/05/06 04:38:59;;;;;;;10.03;3.72;;;;;;;4.84;70.62;97546.13;1832748;78;21392;-73
2021/05/06 04:54:40;;;;;;;10.45;4.65;;;;;;;5.81;68.34;97558.96;1832605;78;21098;-73
2021/05/06 04:57:20;;;;;;;9.48;4.78;;;;;;;5.98;68.02;97556.94;1832189;77;21514;-73
2021/05/06 05:04:59;;;;;;;8.93;4.03;;;;;;;6.25;64.95;97555.48;1826546;78;21074;-74
2021/05/06 05:07:38;;;;;;;6.97;4.30;;;;;;;6.42;65.04;97568.19;1826532;77;21190;-74
2021/05/06 05:20:50;;;;;;;3.72;1.70;;;;;;;7.18;61.67;97578.84;1799505;78;21931;-74
2021/05/06 05:25:51;;;;;;;4.67;2.60;;;;;;;7.42;60.72;97583.98;1826644;78;21471;-72
2021/05/06 05:28:17;;;;;;;5.65;2.20;;;;;;;7.59;59.58;97595.30;1826424;77;21066;-73
2021/05/06 05:30:43;;;;;;;2.90;1.80;;;;;;;7.65;59.05;97589.38;1826619;78;21118;-73
2021/05/06 05:33:12;;;;;;;1.95;1.67;;;;;;;7.75;58.57;97588.55;1826486;77;21218;-73
2021/05/06 05:56:46;;;;;;;2.80;1.87;;;;;;;8.43;55.65;97586.25;1826640;77;21117;-74
2021/05/06 05:59:12;;;;;;;4.67;2.27;;;;;;;8.42;54.50;97585.45;1825559;78;21202;-73
2021/05/06 06:01:39;;;;;;;4.47;2.12;;;;;;;8.55;54.92;97589.46;1824629;77;21023;-73
2021/05/06 06:04:05;;;;;;;3.27;2.15;;;;;;;8.52;53.94;97594.05;1824597;78;21071;-73
2021/05/06 06:06:31;;;;;;;5.90;2.33;;;;;;;8.57;54.24;97583.78;1824646;77;21417;-74
2021/05/06 06:08:57;;;;;;;1.95;1.50;;;;;;;8.65;54.37;97583.20;1824643;78;21455;-73
2021/05/06 06:11:23;;;;;;;5.20;2.75;;;;;;;8.63;53.32;97581.30;1824729;77;21266;-73
2021/05/06 06:13:51;;;;;;;2.75;1.55;;;;;;;8.63;52.92;97575.89;1824661;78;21074;-74
2021/05/06 06:16:27;;;;;;;2.67;0.98;;;;;;;8.71;52.70;97576.13;1797692;77;21110;-73
2021/05/06 06:18:55;;;;;;;3.17;1.65;;;;;;;8.72;53.22;97583.17;1824331;78;21050;-74
2021/05/06 06:24:06;;;;;;;2.92;1.77;;;;;;;8.84;52.04;97576.07;1824843;78;21479;-73
2021/05/06 06:26:32;;;;;;;2.47;1.60;;;;;;;8.96;53.11;97582.48;1824913;77;21063;-73
2021/05/06 06:29:06;;;;;;;4.70;1.80;;;;;;;9.12;52.38;97582.64;1824687;78;21057;-74
2021/05/06 06:31:37;;;;;;;4.00;1.75;;;;;;;9.27;52.30;97583.09;1823696;77;21411;-74
2021/05/06 06:34:00;;;;;;;6.92;4.70;;;;;;;9.46;52.01;97594.03;1823945;78;21030;-73
2021/05/06 06:36:27;;;;;;;6.83;2.50;;;;;;;9.55;51.34;97582.87;1824915;77;21214;-73
2021/05/06 06:38:53;;;;;;;4.17;2.67;;;;;;;9.62;50.67;97584.70;1824630;78;21114;-74
2021/05/06 06:41:20;;;;;;;6.08;2.85;;;;;;;9.74;50.95;97583.80;1824818;77;21585;-73
2021/05/06 06:43:50;;;;;;;3.50;1.40;;;;;;;9.95;51.49;97587.66;1824750;78;21109;-73
2021/05/06 06:46:16;;;;;;;4.22;1.67;;;;;;;10.13;50.42;97583.67;1824370;77;21102;-73
2021/05/06 06:48:43;;;;;;;2.50;1.47;;;;;;;10.25;50.42;97584.64;1824588;78;21217;-73
2021/05/06 06:51:09;;;;;;;3.37;2.05;;;;;;;10.49;50.02;97581.94;1824540;77;21122;-73
2021/05/06 06:53:35;;;;;;;3.87;2.05;;;;;;;11.04;48.53;97596.42;1824741;78;21622;-73
2021/05/06 06:56:02;;;;;;;2.87;1.70;;;;;;;11.40;47.82;97579.88;1824619;78;21141;-73
2021/05/06 06:58:28;;;;;;;4.30;1.55;;;;;;;11.40;47.82;97579.88;1824828;77;21495;-74
2021/05/06 07:00:54;;;;;;;4.92;1.65;;;;;;;11.53;48.40;97577.74;1826661;78;21149;-73
2021/05/06 07:03:20;;;;;;;4.55;1.92;;;;;;;11.67;46.85;97584.58;1826510;77;21028;-73
2021/05/06 07:05:47;;;;;;;2.62;1.60;;;;;;;11.87;46.41;97587.52;1826667;78;21156;-74
2021/05/06 07:08:20;;;;;;;5.95;1.42;;;;;;;11.71;44.42;97584.27;1826613;77;21141;-73
2021/05/06 07:10:49;;;;;;;6.50;3.65;;;;;;;11.47;45.26;97591.16;1826379;78;21740;-73
2021/05/06 07:13:18;;;;;;;3.27;2.00;;;;;;;11.81;46.04;97586.02;1826926;77;21193;-73
2021/05/06 07:15:52;;;;;;;2.40;1.95;;;;;;;12.43;44.23;97580.52;1826638;78;21129;-73
2021/05/06 07:18:18;;;;;;;2.25;1.57;;;;;;;12.95;44.56;97574.26;1826634;77;21062;-73
2021/05/06 07:20:45;;;;;;;3.37;1.90;;;;;;;13.55;43.88;97578.63;1826691;78;21212;-73
2021/05/06 07:23:17;;;;;;;7.15;3.10;;;;;;;14.12;42.88;97578.83;1826664;77;21015;-73
2021/05/06 07:25:45;;;;;;;11.65;10.60;;;;;;;14.58;42.23;97574.30;1826827;78;21281;-73
2021/05/06 07:28:21;;;;;;;6.40;5.33;;;;;;;14.78;41.56;97567.45;1826823;77;21025;-74
2021/05/06 07:30:49;;;;;;;5.47;2.00;;;;;;;15.25;41.84;97573.14;1823933;78;21146;-74
2021/05/06 07:33:16;;;;;;;5.22;1.87;;;;;;;15.69;39.47;97572.02;1826674;77;21133;-74
2021/05/06 07:35:42;;;;;;;5.92;1.87;;;;;;;16.08;39.96;97566.08;1826631;78;21023;-74
2021/05/06 07:38:10;;;;;;;1.55;1.30;;;;;;;16.46;36.59;97560.62;1826681;77;21348;-74
2021/05/06 07:40:37;;;;;;;3.20;1.47;;;;;;;16.64;36.51;97555.30;1794781;78;21093;-74
2021/05/06 07:43:04;;;;;;;2.40;1.57;;;;;;;16.43;38.11;97554.45;1826621;77;21172;-74
2021/05/06 07:45:30;;;;;;;6.03;2.00;;;;;;;17.11;35.49;97553.03;1826625;78;21149;-74
2021/05/06 07:47:58;;;;;;;1.70;1.00;;;;;;;17.16;36.30;97554.19;1826729;77;21459;-74
2021/05/06 07:50:24;;;;;;;2.58;1.60;;;;;;;17.61;32.13;97563.90;1795062;78;21189;-74
2021/05/06 07:52:53;;;;;;;4.53;1.30;;;;;;;16.77;33.28;97559.53;1826518;77;21050;-74
2021/05/06 07:55:18;;;;;;;2.00;1.32;;;;;;;17.16;34.24;97549.51;1826454;78;21436;-74
2021/05/06 07:57:45;;;;;;;4.67;1.87;;;;;;;17.45;34.51;97554.13;1826528;77;21114;-74
2021/05/06 08:00:15;;;;;;;2.95;1.67;;;;;;;17.60;30.68;97569.12;1825238;78;21012;-74
2021/05/06 08:02:43;;;;;;;3.83;1.80;;;;;;;17.20;31.08;97570.99;1824445;77;21258;-73
2021/05/06 08:05:10;;;;;;;3.77;1.90;;;;;;;17.40;32.36;97554.89;1824587;78;21428;-74
2021/05/06 08:07:36;;;;;;;4.87;2.55;;;;;;;17.73;32.48;97562.59;1824489;77;21086;-74
2021/05/06 08:10:05;;;;;;;8.00;1.92;;;;;;;18.24;30.54;97566.50;1824506;78;21042;-74
2021/05/06 08:12:31;;;;;;;3.02;1.30;;;;;;;18.66;30.64;97564.96;1824649;77;21412;-74
2021/05/06 08:14:57;;;;;;;3.65;1.42;;;;;;;19.05;29.51;97545.58;1824524;78;21196;-74
2021/05/06 08:17:24;;;;;;;2.83;1.80;;;;;;;18.64;28.88;97559.80;1824638;77;21165;-75
2021/05/06 08:19:50;;;;;;;6.40;2.72;;;;;;;18.35;30.21;97561.36;1824508;78;21035;-73
2021/05/06 08:22:17;;;;;;;2.33;1.65;;;;;;;17.56;30.81;97562.72;1824555;77;21522;-74
2021/05/06 08:24:44;;;;;;;2.65;1.32;;;;;;;16.65;31.67;97558.83;1824681;78;21090;-73
2021/05/06 08:27:10;;;;;;;7.95;2.45;;;;;;;17.36;32.08;97565.72;1824653;77;21428;-74
2021/05/06 08:29:36;;;;;;;2.98;1.65;;;;;;;18.35;29.99;97563.53;1824623;78;21486;-74
2021/05/06 08:32:02;;;;;;;5.17;2.50;;;;;;;18.41;28.19;97571.77;1824466;77;21053;-73
2021/05/06 08:34:29;;;;;;;4.45;1.82;;;;;;;18.03;28.13;97559.16;1824463;78;21030;-74
2021/05/06 08:36:55;;;;;;;4.03;2.22;;;;;;;18.64;28.81;97558.42;1824660;77;21082;-74
2021/05/06 08:39:21;;;;;;;5.37;2.40;;;;;;;19.95;27.03;97553.87;1824410;78;21270;-74
2021/05/06 08:41:47;;;;;;;4.80;2.05;;;;;;;19.24;25.92;97553.23;1824488;77;21518;-73
2021/05/06 08:44:17;;;;;;;5.83;2.67;;;;;;;19.83;25.46;97559.45;1824540;78;21031;-74
2021/05/06 08:47:01;;;;;;;3.12;1.60;;;;;;;19.75;25.35;97547.45;1824873;77;21145;-74
2021/05/06 08:49:11;;;;;;;2.90;1.35;;;;;;;20.58;26.00;97557.27;1820533;78;21590;-74
2021/05/06 08:51:38;;;;;;;3.72;1.72;;;;;;;21.09;25.31;97547.84;1797561;78;21290;-74
2021/05/06 08:54:04;;;;;;;3.65;1.95;;;;;;;21.67;22.90;97556.19;1825078;78;21156;-74
2021/05/06 08:56:32;;;;;;;2.58;1.77;;;;;;;21.61;22.72;97556.84;1824984;77;21034;-74
2021/05/06 08:58:58;;;;;;;3.92;2.40;;;;;;;21.72;23.47;97550.98;1825228;78;21067;-75
2021/05/06 09:01:24;;;;;;;9.13;7.33;;;;;;;22.04;21.74;97550.19;1827106;77;21154;-74
2021/05/06 09:03:50;;;;;;;4.87;3.98;;;;;;;21.99;21.89;97547.75;1829147;78;21190;-74
2021/05/06 09:06:19;;;;;;;5.33;2.10;;;;;;;21.95;23.47;97557.31;1828906;77;21121;-74
2021/05/06 09:09:00;;;;;;;3.85;1.67;;;;;;;22.64;21.48;97558.75;1829285;78;21122;-74
2021/05/06 09:11:32;;;;;;;4.10;2.42;;;;;;;22.94;20.27;97548.40;1829042;77;21178;-74
2021/05/06 09:14:09;;;;;;;7.97;4.53;;;;;;;23.47;20.85;97552.48;1798258;78;21102;-75
2021/05/06 09:16:41;;;;;;;5.92;4.15;;;;;;;23.24;21.33;97558.09;1829931;77;21253;-74
2021/05/06 09:19:09;;;;;;;5.55;1.85;;;;;;;21.51;23.26;97563.73;1829864;78;21090;-74
2021/05/06 09:21:38;;;;;;;4.67;2.37;;;;;;;19.97;22.95;97558.44;1830032;77;21063;-74
2021/05/06 09:24:11;;;;;;;2.42;1.40;;;;;;;20.96;22.89;97564.29;1829314;78;21106;-74
2021/05/06 09:26:39;;;;;;;2.85;1.80;;;;;;;22.02;21.20;97560.00;1797611;78;21059;-74
2021/05/06 09:29:09;;;;;;;6.17;2.70;;;;;;;22.22;21.70;97546.43;1829566;78;21178;-74
2021/05/06 09:31:41;;;;;;;2.62;1.42;;;;;;;22.51;22.33;97556.78;1829498;77;21055;-73
2021/05/06 09:34:09;;;;;;;3.05;1.60;;;;;;;20.60;23.53;97554.98;1830006;78;21086;-73
2021/05/06 09:36:36;;;;;;;6.37;1.85;;;;;;;19.62;24.70;97551.39;1829589;77;21094;-74
2021/05/06 09:39:03;;;;;;;3.22;1.30;;;;;;;19.94;24.88;97555.03;1829597;78;21011;-73
2021/05/06 09:41:35;;;;;;;4.08;1.67;;;;;;;19.48;25.88;97559.19;1829931;77;21171;-74
2021/05/06 09:44:15;;;;;;;4.35;1.55;;;;;;;18.77;25.49;97560.61;1830253;77;21003;-73
2021/05/06 09:46:43;;;;;;;4.20;2.60;;;;;;;17.35;27.29;97555.11;1830186;77;21014;-74
2021/05/06 09:49:11;;;;;;;4.75;1.60;;;;;;;17.27;27.76;97558.72;1830393;78;20999;-74
2021/05/06 09:51:42;;;;;;;2.12;1.40;;;;;;;16.79;28.39;97560.00;1830140;77;21484;-73
2021/05/06 09:54:18;;;;;;;5.00;1.52;;;;;;;16.20;28.81;97560.73;1797705;78;21204;-73
2021/05/06 09:56:44;;;;;;;2.20;1.40;;;;;;;15.65;29.22;97567.55;1829598;77;21142;-74
2021/05/06 09:59:13;;;;;;;2.65;1.32;;;;;;;16.02;29.11;97570.91;1830311;78;21023;-74
2021/05/06 10:01:41;;;;;;;3.72;1.55;;;;;;;15.67;30.04;97566.08;1800658;78;21035;-73
2021/05/06 10:04:23;;;;;;;4.15;1.42;;;;;;;14.96;31.02;97579.22;1828164;78;26473;-74
2021/05/06 10:07:25;;;;;;;2.40;1.57;;;;;;;16.26;28.98;97572.30;1827878;77;21251;-74
2021/05/06 10:10:02;;;;;;;3.10;1.90;;;;;;;15.37;30.05;97560.20;1826266;78;21149;-75
2021/05/06 10:12:30;;;;;;;4.62;2.10;;;;;;;14.53;31.31;97575.83;1826879;77;21055;-73
2021/05/06 10:14:57;;;;;;;4.30;1.42;;;;;;;14.52;31.78;97569.30;1826944;78;21133;-76
2021/05/06 10:17:25;;;;;;;15.00;9.53;;;;;;;14.11;32.75;97570.41;1824708;77;21133;-72
2021/05/06 10:19:52;;;;;;;2.50;1.90;;;;;;;14.10;32.89;97579.70;1824760;78;21457;-72
2021/05/06 10:22:21;;;;;;;2.40;1.60;;;;;;;13.53;33.82;97576.22;1824569;77;21058;-72
2021/05/06 10:24:48;;;;;;;2.72;2.10;;;;;;;13.54;34.15;97578.39;1824730;78;21487;-73
2021/05/06 10:27:17;;;;;;;2.37;1.75;;;;;;;13.75;34.05;97578.67;1824680;77;21109;-72
2021/05/06 10:29:44;;;;;;;4.97;1.62;;;;;;;13.46;34.37;97577.77;1824032;78;21034;-72
2021/05/06 10:32:12;;;;;;;8.68;2.17;;;;;;;13.62;34.43;97572.20;1824617;77;21259;-72
2021/05/06 10:34:41;;;;;;;2.80;1.77;;;;;;;14.19;33.69;97576.46;1824765;78;22078;-72
2021/05/06 10:37:07;;;;;;;3.02;1.40;;;;;;;15.58;32.11;97565.83;1824698;77;21118;-73
2021/05/06 10:39:45;;;;;;;4.10;2.20;;;;;;;17.06;30.43;97566.91;1824721;78;21527;-73
2021/05/06 10:42:30;;;;;;;3.10;1.80;;;;;;;17.45;29.65;97558.23;1824796;77;21003;-73
2021/05/06 10:45:00;;;;;;;3.27;1.60;;;;;;;17.36;29.36;97552.03;1824684;78;21118;-74
2021/05/06 10:47:48;;;;;;;2.72;1.45;;;;;;;17.25;29.49;97556.29;1824560;77;21114;-73
2021/05/06 10:50:25;;;;;;;5.35;1.90;;;;;;;17.45;28.67;97554.70;1824707;78;21102;-73
2021/05/06 10:52:55;;;;;;;2.85;2.15;;;;;;;16.28;28.75;97535.86;1797176;78;21043;-73
2021/05/06 10:55:49;;;;;;;2.98;1.72;;;;;;;16.15;30.58;97544.52;1824665;78;21055;-73
2021/05/06 10:58:34;;;;;;;4.03;1.72;;;;;;;16.22;30.70;97542.06;1824664;77;21188;-74
2021/05/06 11:01:16;;;;;;;5.75;3.37;;;;;;;15.77;31.29;97551.28;1825769;78;21051;-74
2021/05/06 11:03:42;;;;;;;7.72;5.30;;;;;;;15.72;32.00;97531.78;1826632;78;21069;-74
2021/05/06 11:06:39;;;;;;;2.98;1.57;;;;;;;15.74;31.85;97540.45;1826594;77;21515;-74
2021/05/06 11:09:33;;;;;;;3.90;2.15;;;;;;;15.12;32.46;97533.15;1826765;78;21459;-73
2021/05/06 11:12:19;;;;;;;5.10;3.22;;;;;;;14.67;32.82;97522.52;1821879;77;21140;-73
2021/05/06 11:15:06;;;;;;;7.05;2.62;;;;;;;14.69;33.25;97528.45;1826581;78;21479;-73
2021/05/06 11:20:23;;;;;;;7.55;4.62;;;;;;;13.94;34.14;97522.66;1848100;76;22599;-73
2021/05/06 11:22:54;;;;;;;9.53;3.47;;;;;;;13.63;34.66;97536.25;1794378;78;21154;-74
2021/05/06 11:25:37;;;;;;;8.48;3.27;;;;;;;13.35;35.50;97530.15;1785890;80;21189;-73
2021/05/06 11:28:25;;;;;;;7.10;3.47;;;;;;;13.12;36.61;97529.29;1755896;81;20937;-74
2021/05/06 11:30:53;;;;;;;11.63;4.28;;;;;;;12.93;38.47;97533.53;1717614;83;21007;-74
2021/05/06 11:33:25;;;;;;;13.43;5.10;;;;;;;12.72;38.64;97534.52;1725796;81;21491;-73
2021/05/06 11:36:09;;;;;;;7.95;2.50;;;;;;;12.59;39.60;97532.09;1724017;83;21139;-73
2021/05/06 11:38:42;;;;;;;2.95;2.02;;;;;;;12.48;39.89;97534.78;1717542;83;22115;-73
2021/05/06 11:41:13;;;;;;;6.72;2.90;;;;;;;12.52;40.74;97537.13;1755443;81;21091;-73
2021/05/06 11:43:47;;;;;;;4.15;2.08;;;;;;;13.07;41.15;97530.76;1717402;83;21018;-73
2021/05/06 11:46:25;;;;;;;11.78;2.25;;;;;;;13.32;40.99;97530.75;1755586;81;21047;-73
2021/05/06 11:48:58;;;;;;;4.10;2.52;;;;;;;13.70;40.50;97515.64;1724006;83;21099;-73
2021/05/06 11:51:29;;;;;;;7.58;3.83;;;;;;;14.55;39.18;97505.42;1717503;83;21253;-73
2021/05/06 11:54:18;;;;;;;3.87;2.70;;;;;;;14.38;39.56;97497.17;1755506;81;21078;-74
2021/05/06 11:56:54;;;;;;;4.65;2.70;;;;;;;14.34;39.21;97498.35;1695481;83;21115;-73
2021/05/06 11:59:23;;;;;;;2.37;1.40;;;;;;;14.69;37.28;97501.18;1717503;83;21158;-73
2021/05/06 12:01:49;;;;;;;5.35;1.92;;;;;;;14.87;34.96;97492.48;1755603;81;21107;-73
2021/05/06 12:04:32;;;;;;;9.10;2.70;;;;;;;15.10;34.56;97494.47;1717583;83;22147;-73
2021/05/06 12:06:59;;;;;;;3.67;2.20;;;;;;;15.03;34.20;97490.86;1755421;81;21115;-73
2021/05/06 12:09:30;;;;;;;2.55;1.57;;;;;;;16.27;31.48;97492.69;1717505;83;21106;-73
2021/05/06 12:11:57;;;;;;;3.12;1.92;;;;;;;15.97;32.43;97489.09;1755455;81;21161;-73
2021/05/06 12:14:32;;;;;;;2.47;1.50;;;;;;;16.51;30.91;97487.17;1719487;83;21087;-73
2021/05/06 12:16:58;;;;;;;3.95;1.72;;;;;;;17.61;29.43;97489.94;1717458;83;21203;-73
2021/05/06 12:19:24;;;;;;;6.30;1.92;;;;;;;18.35;27.65;97487.31;1750679;81;21143;-72
2021/05/06 12:21:53;;;;;;;4.55;1.90;;;;;;;18.76;27.55;97487.08;1717444;83;21098;-73
2021/05/06 12:24:44;;;;;;;3.45;1.60;;;;;;;18.75;27.50;97479.20;1755679;81;20933;-73
2021/05/06 12:27:22;;;;;;;3.52;1.70;;;;;;;18.84;26.82;97482.03;1714237;83;21115;-74
2021/05/06 12:29:52;;;;;;;4.42;2.08;;;;;;;18.26;27.55;97469.02;1747913;82;21275;-73
2021/05/06 12:32:25;;;;;;;5.05;1.82;;;;;;;17.34;29.40;97474.07;1715120;83;21107;-73
2021/05/06 12:34:51;;;;;;;3.90;1.90;;;;;;;16.53;29.24;97467.93;1709869;83;21107;-73
2021/05/06 12:37:18;;;;;;;4.47;2.20;;;;;;;15.85;30.07;97468.51;1747447;82;21106;-73
2021/05/06 12:39:46;;;;;;;3.80;1.60;;;;;;;15.25;31.27;97462.60;1716192;83;21131;-74
2021/05/06 12:42:12;;;;;;;6.80;2.33;;;;;;;14.92;31.83;97465.03;1710038;84;21185;-73
2021/05/06 12:44:48;;;;;;;4.15;2.12;;;;;;;14.59;32.03;97457.87;1747490;81;21532;-73
2021/05/06 12:50:15;;;;;;;4.47;2.45;;;;;;;15.65;32.07;97450.11;1873994;76;27621;-73
2021/05/06 12:52:43;;;;;;;6.92;1.60;;;;;;;17.20;29.43;97438.22;1883096;75;21393;-74
2021/05/06 12:55:19;;;;;;;4.90;2.23;;;;;;;19.44;27.36;97423.91;1893876;75;21179;-74
2021/05/06 12:57:48;;;;;;;4.37;1.82;;;;;;;19.84;27.04;97435.39;1893442;75;20956;-73
2021/05/06 13:00:20;;;;;;;6.22;1.90;;;;;;;19.94;24.81;97436.23;1888812;75;20980;-73
2021/05/06 13:02:47;;;;;;;4.05;1.65;;;;;;;19.44;25.32;97436.84;1893498;75;21086;-73
2021/05/06 13:05:32;;;;;;;3.85;1.80;;;;;;;19.16;25.71;97432.18;1893574;75;21108;-73
2021/05/06 13:07:59;;;;;;;6.17;1.50;;;;;;;19.77;25.38;97433.83;1893456;75;21548;-74
2021/05/06 13:10:43;;;;;;;3.22;1.90;;;;;;;20.01;24.87;97431.48;1893472;75;20992;-74
2021/05/06 13:13:11;;;;;;;3.42;1.30;;;;;;;20.41;23.65;97435.38;1893542;75;21003;-73
2021/05/06 13:15:51;;;;;;;26.50;16.05;;;;;;;20.74;23.61;97437.72;1893627;75;21098;-73
2021/05/06 13:18:18;;;;;;;4.75;2.40;;;;;;;20.26;23.70;97438.97;1861709;75;20997;-73
2021/05/06 13:20:47;;;;;;;3.55;1.65;;;;;;;20.01;24.41;97438.36;1893503;75;21180;-73
2021/05/06 13:23:31;;;;;;;7.12;1.47;;;;;;;19.04;25.57;97426.72;1893407;75;21087;-73
2021/05/06 13:26:03;;;;;;;2.20;1.35;;;;;;;18.46;26.21;97430.87;1893563;75;21437;-73
2021/05/06 13:28:35;;;;;;;2.72;1.60;;;;;;;18.10;26.26;97435.78;1893563;75;21020;-73
2021/05/06 13:31:19;;;;;;;7.85;4.33;;;;;;;18.68;26.14;97437.23;1893571;75;21051;-74
2021/05/06 13:33:46;;;;;;;2.92;1.80;;;;;;;19.07;24.63;97427.41;1893453;75;21182;-74
2021/05/06 13:36:16;;;;;;;4.92;3.47;;;;;;;19.09;25.68;97433.92;1893397;75;21200;-73
2021/05/06 13:39:00;;;;;;;6.95;1.77;;;;;;;19.07;25.19;97421.12;1893534;75;21127;-74
2021/05/06 13:41:30;;;;;;;6.53;3.87;;;;;;;19.35;25.67;97413.66;1893490;75;21159;-73
2021/05/06 13:43:58;;;;;;;7.83;6.65;;;;;;;20.14;24.66;97412.34;1893494;75;21063;-74
2021/05/06 13:46:26;;;;;;;41.80;29.40;;;;;;;19.71;24.87;97400.88;1893617;75;21176;-74
2021/05/06 13:48:52;;;;;;;187.68;112.60;;;;;;;20.18;25.00;97402.82;1894635;75;21527;-74
2021/05/06 13:51:20;;;;;;;164.52;86.67;;;;;;;19.01;25.98;97407.41;1896680;75;21518;-74
2021/05/06 13:53:48;;;;;;;55.73;29.35;;;;;;;18.26;26.20;97403.21;1896811;75;21015;-74
2021/05/06 13:56:14;;;;;;;43.90;23.12;;;;;;;18.96;24.44;97392.55;1896974;75;21067;-74
2021/05/06 13:58:41;;;;;;;82.02;44.67;;;;;;;17.76;26.11;97381.64;1896679;75;21186;-74
2021/05/06 14:01:09;;;;;;;30.32;14.47;;;;;;;17.43;27.18;97392.63;1896012;75;21507;-73
2021/05/06 14:03:35;;;;;;;47.00;25.48;;;;;;;17.70;26.59;97384.39;1896162;75;21079;-74
2021/05/06 14:06:05;;;;;;;56.50;29.65;;;;;;;16.68;27.89;97398.73;1895982;75;21106;-74
2021/05/06 14:08:30;;;;;;;;;;;;;;;16.04;28.61;97403.32;1898713;75;20995;-74
2021/05/06 14:10:57;;;;;;;30.60;16.90;;;;;;;15.57;28.95;97401.76;1895997;75;21290;-73
2021/05/06 14:13:23;;;;;;;17.48;9.53;;;;;;;15.07;29.80;97411.34;1895904;75;21024;-74
2021/05/06 14:15:50;;;;;;;23.67;13.60;;;;;;;14.67;30.75;97399.81;1895958;75;21076;-73
2021/05/06 14:18:16;;;;;;;22.00;14.23;;;;;;;14.51;30.88;97409.02;1896052;75;21448;-74
2021/05/06 14:20:42;;;;;;;31.97;18.75;;;;;;;14.50;31.31;97416.16;1895982;75;21145;-74
2021/05/06 14:23:10;;;;;;;30.23;17.07;;;;;;;14.70;31.46;97416.09;1896032;75;21175;-74
2021/05/06 14:25:36;;;;;;;15.25;9.60;;;;;;;15.00;31.82;97408.86;1895988;75;21082;-74
2021/05/06 14:28:06;;;;;;;27.75;15.68;;;;;;;14.89;31.78;97413.30;1895819;75;21114;-74
2021/05/06 14:30:33;;;;;;;9.95;4.20;;;;;;;14.92;32.00;97405.02;1896042;75;21098;-73
2021/05/06 14:33:00;;;;;;;6.10;3.40;;;;;;;14.92;32.43;97403.66;1866429;75;21000;-71
2021/05/06 14:35:26;;;;;;;5.75;2.70;;;;;;;14.79;32.48;97399.98;1896061;75;21261;-71
2021/05/06 14:37:53;;;;;;;6.83;3.60;;;;;;;15.19;32.25;97397.83;1895785;75;21173;-71
2021/05/06 14:40:19;;;;;;;4.85;2.95;;;;;;;16.21;32.08;97393.42;1895965;75;21012;-73
2021/05/06 14:42:45;;;;;;;8.95;5.92;;;;;;;17.14;31.25;97397.70;1895880;75;21103;-72
2021/05/06 14:45:13;;;;;;;6.17;3.85;;;;;;;17.81;30.45;97384.73;1895896;75;21036;-73
2021/05/06 14:47:40;;;;;;;6.42;3.05;;;;;;;17.75;30.03;97382.78;1896022;75;21171;-73
2021/05/06 14:50:09;;;;;;;9.28;5.80;;;;;;;18.12;28.63;97378.12;1895704;75;21090;-73
2021/05/06 14:52:35;;;;;;;6.83;4.42;;;;;;;17.77;29.86;97366.80;1896128;75;28146;-73
2021/05/06 14:55:03;;;;;;;16.70;12.93;;;;;;;18.37;28.65;97363.77;1895945;75;21032;-73
2021/05/06 14:57:29;;;;;;;5.72;3.15;;;;;;;18.42;29.46;97371.77;1896020;75;20996;-73
2021/05/06 14:59:55;;;;;;;9.30;4.10;;;;;;;18.74;27.19;97365.09;1895905;75;21251;-73
2021/05/06 15:02:21;;;;;;;8.58;4.08;;;;;;;18.44;27.67;97351.64;1895901;75;21412;-73
2021/05/06 15:04:48;;;;;;;14.78;7.85;;;;;;;17.42;28.50;97336.27;1895871;75;21590;-73
2021/05/06 15:07:14;;;;;;;8.58;4.22;;;;;;;17.06;29.11;97332.89;1895913;75;21445;-73
2021/05/06 15:09:41;;;;;;;12.50;9.13;;;;;;;16.70;29.51;97341.78;1895837;75;21015;-73